Terminal Aerodrome Forecast
Issued by NWS

Home | Current Version | Previous Version | Text Only | Print | Product List | Glossary On
Versions: 1 2 3 4 5 6 7 8 9 10 11 12 13 14 15 16 17 18 19 20 21 22
158
FTUS43 KDLH 222340
TAFHIB
TAF
KHIB 222340Z 2300/2324 35013G18KT P6SM VCSH SCT035 SCT050 BKN110
     FM230100 32005KT P6SM SCT110
     FM231700 34005KT P6SM BKN045=

USA.gov is the U.S. government's official web portal to all federal, state and local government web resources and services.